Time;durP1;ratioP1;P1;durP2;ratioP2;P2;SDS_P1;SDS_P2;PMS_P1;PMS_P2;Temp;Humidity;BMP_temperature;BMP_pressure;BME280_temperature;BME280_humidity;BME280_pressure;Samples;Min_cycle;Max_cycle;Signal;HPM_P1;HPM_P2
2023/05/10 00:03:41;;;;;;;12.10;6.60;;;14.90;99.90;;;;;;4816344;29;20111;-93
2023/05/10 00:06:54;;;;;;;7.65;6.63;;;14.90;99.90;;;;;;4913378;24;20061;-92
2023/05/10 00:35:53;;;;;;;7.85;5.95;;;14.70;99.90;;;;;;4870384;24;20058;-90
2023/05/10 00:38:49;;;;;;;8.15;5.65;;;14.80;99.90;;;;;;4830117;29;20050;-90
2023/05/10 00:42:19;;;;;;;;;;;;;;;;;;;;;
2023/05/10 00:45:29;;;;;;;7.07;5.93;;;14.70;99.90;;;;;;4804966;29;20054;-90
2023/05/10 00:51:26;;;;;;;7.97;6.10;;;14.70;99.90;;;;;;4873806;29;20052;-91
2023/05/10 00:57:58;;;;;;;6.45;5.55;;;14.60;99.90;;;;;;4873183;29;20110;-91
2023/05/10 01:00:43;;;;;;;8.50;6.53;;;14.60;99.90;;;;;;4841787;29;20400;-91
2023/05/10 01:04:27;;;;;;;;;;;;;;;;;;;;;
2023/05/10 01:34:19;;;;;;;13.85;11.60;;;14.50;99.90;;;;;;4826926;29;20054;-92
2023/05/10 01:48:11;;;;;;;11.65;9.90;;;14.40;99.90;;;;;;4819445;29;20160;-91
2023/05/10 01:53:53;;;;;;;11.07;8.95;;;14.40;99.90;;;;;;4829849;29;20046;-92
2023/05/10 01:59:25;;;;;;;11.57;9.18;;;14.40;99.90;;;;;;4846626;29;20049;-92
2023/05/10 02:01:55;;;;;;;11.77;9.10;;;14.30;99.90;;;;;;4834728;29;20050;-91
2023/05/10 02:04:31;;;;;;;13.25;10.07;;;14.30;99.90;;;;;;4830874;29;20419;-91
2023/05/10 02:06:57;;;;;;;12.90;9.55;;;14.40;99.90;;;;;;4824693;29;20050;-92
2023/05/10 02:09:25;;;;;;;10.40;9.15;;;14.30;99.90;;;;;;4831769;29;20185;-89
2023/05/10 02:12:02;;;;;;;11.63;9.13;;;14.30;99.90;;;;;;4832219;29;20126;-92
2023/05/10 02:18:38;;;;;;;;;;;;;;;;;;;;;
2023/05/10 02:21:41;;;;;;;10.35;9.05;;;14.30;99.90;;;;;;4807506;29;20061;-91
2023/05/10 02:24:39;;;;;;;10.52;7.95;;;14.30;99.90;;;;;;4815770;29;20138;-92
2023/05/10 02:27:42;;;;;;;10.15;8.02;;;14.30;99.90;;;;;;4832906;29;20041;-92
2023/05/10 02:30:57;;;;;;;10.90;8.98;;;14.20;99.90;;;;;;4860178;29;20066;-94
2023/05/10 02:37:25;;;;;;;;;;;;;;;;;;;;;
2023/05/10 02:40:36;;;;;;;10.00;8.02;;;14.20;99.90;;;;;;4829324;29;20110;-93
2023/05/10 02:43:04;;;;;;;10.27;8.43;;;14.10;99.90;;;;;;4846037;29;20057;-91
2023/05/10 02:45:46;;;;;;;;;;;;;;;;;;;;;
2023/05/10 02:48:21;;;;;;;9.20;7.70;;;14.10;99.90;;;;;;4820229;29;20054;-92
2023/05/10 02:50:51;;;;;;;11.20;8.32;;;14.10;99.90;;;;;;4805437;29;20149;-92
2023/05/10 02:53:23;;;;;;;10.30;7.95;;;14.20;99.90;;;;;;4810932;29;20058;-93
2023/05/10 02:56:04;;;;;;;10.50;8.57;;;14.10;99.90;;;;;;4831515;29;20077;-92
2023/05/10 02:58:29;;;;;;;9.50;7.88;;;14.10;99.90;;;;;;4811219;29;20124;-90
2023/05/10 03:00:55;;;;;;;11.02;8.07;;;14.00;99.90;;;;;;4827353;29;20046;-91
2023/05/10 03:03:21;;;;;;;11.07;8.52;;;14.10;99.90;;;;;;4845064;29;20152;-92
2023/05/10 03:05:58;;;;;;;9.75;7.15;;;14.00;99.90;;;;;;4844158;29;20204;-90
2023/05/10 03:08:24;;;;;;;9.93;8.52;;;14.00;99.90;;;;;;4845035;29;20117;-92
2023/05/10 03:11:16;;;;;;;10.05;7.88;;;14.10;99.90;;;;;;4845841;29;20038;-91
2023/05/10 03:13:58;;;;;;;9.30;7.45;;;14.00;99.90;;;;;;4828660;29;20090;-91
2023/05/10 03:16:40;;;;;;;9.90;7.32;;;14.00;99.90;;;;;;4853108;29;20588;-91
2023/05/10 03:19:27;;;;;;;10.48;7.72;;;14.00;99.90;;;;;;4828043;29;20049;-91
2023/05/10 03:21:55;;;;;;;10.10;7.72;;;14.00;99.90;;;;;;4834438;29;20046;-90
2023/05/10 03:24:25;;;;;;;10.15;7.40;;;14.00;99.90;;;;;;4810349;29;20030;-92
2023/05/10 03:26:55;;;;;;;10.65;7.57;;;14.00;99.90;;;;;;4825369;29;20053;-93
2023/05/10 03:29:22;;;;;;;10.57;7.38;;;13.90;99.90;;;;;;4843679;29;20045;-91
2023/05/10 03:31:48;;;;;;;7.95;6.68;;;13.90;99.90;;;;;;4827062;29;20062;-93
2023/05/10 03:34:14;;;;;;;9.27;6.65;;;14.00;99.90;;;;;;4810059;29;20141;-91
2023/05/10 03:36:39;;;;;;;10.15;6.38;;;13.90;99.90;;;;;;4815006;29;20053;-92
2023/05/10 03:39:05;;;;;;;8.57;6.15;;;13.90;99.90;;;;;;4828309;29;20094;-90
2023/05/10 03:41:31;;;;;;;8.68;6.93;;;13.90;99.90;;;;;;4823233;29;20053;-90
2023/05/10 03:43:56;;;;;;;10.65;7.82;;;13.80;99.90;;;;;;4825705;29;20456;-91
2023/05/10 03:46:22;;;;;;;7.32;5.72;;;13.90;99.90;;;;;;4821201;29;20077;-90
2023/05/10 03:48:48;;;;;;;7.50;5.82;;;13.90;99.90;;;;;;4824270;29;20427;-91
2023/05/10 03:51:13;;;;;;;9.02;5.78;;;13.80;99.90;;;;;;4844129;29;20085;-91
2023/05/10 03:53:39;;;;;;;7.95;5.75;;;13.80;99.90;;;;;;4834355;29;20445;-91
2023/05/10 03:56:04;;;;;;;9.45;6.97;;;13.80;99.90;;;;;;4825226;29;20061;-90
2023/05/10 03:58:30;;;;;;;9.40;5.60;;;13.80;99.90;;;;;;4808955;29;20053;-90
2023/05/10 04:00:56;;;;;;;7.93;5.55;;;13.80;99.90;;;;;;4811891;29;20100;-89
2023/05/10 04:03:21;;;;;;;7.13;5.05;;;13.80;99.90;;;;;;4832075;29;20046;-90
2023/05/10 04:05:47;;;;;;;7.65;5.60;;;13.80;99.90;;;;;;4833654;29;20526;-89
2023/05/10 04:08:12;;;;;;;7.93;5.35;;;13.80;99.90;;;;;;4816682;29;20510;-89
2023/05/10 04:10:38;;;;;;;8.50;5.45;;;13.80;99.90;;;;;;4813872;29;20042;-90
2023/05/10 04:13:04;;;;;;;6.90;5.32;;;13.80;99.90;;;;;;4826916;29;20058;-89
2023/05/10 04:15:29;;;;;;;8.63;5.50;;;13.80;99.90;;;;;;4811277;29;20066;-89
2023/05/10 04:17:55;;;;;;;10.93;6.25;;;13.70;99.90;;;;;;4838348;29;20399;-88
2023/05/10 04:20:21;;;;;;;8.32;5.53;;;13.80;99.90;;;;;;4825736;29;20050;-88
2023/05/10 04:22:46;;;;;;;7.03;5.43;;;13.70;99.90;;;;;;4807451;29;20369;-88
2023/05/10 04:25:12;;;;;;;7.13;5.32;;;13.70;99.90;;;;;;4823764;29;20057;-89
2023/05/10 04:27:37;;;;;;;8.95;5.47;;;13.70;99.90;;;;;;4838214;29;20113;-86
2023/05/10 04:30:04;;;;;;;6.68;5.25;;;13.70;99.90;;;;;;4824663;29;20102;-88
2023/05/10 04:32:29;;;;;;;8.20;6.00;;;13.70;99.90;;;;;;4839833;29;20042;-87
2023/05/10 04:34:55;;;;;;;7.82;5.57;;;13.70;99.90;;;;;;4826246;29;20114;-87
2023/05/10 04:37:22;;;;;;;6.82;5.45;;;13.70;99.90;;;;;;4842047;29;20073;-86
2023/05/10 04:39:48;;;;;;;8.45;5.00;;;13.60;99.90;;;;;;4825377;29;20099;-88
2023/05/10 04:42:14;;;;;;;6.85;5.07;;;13.70;99.90;;;;;;4818429;29;20077;-87
2023/05/10 04:44:40;;;;;;;6.20;4.63;;;13.70;99.90;;;;;;4822903;29;20042;-88
2023/05/10 04:47:09;;;;;;;7.88;4.97;;;13.60;99.90;;;;;;4839310;29;20052;-88
2023/05/10 04:49:38;;;;;;;5.95;4.60;;;13.60;99.90;;;;;;4823887;29;20129;-89
2023/05/10 04:52:03;;;;;;;5.93;4.60;;;13.60;99.90;;;;;;4815758;29;20050;-88
2023/05/10 04:54:29;;;;;;;7.35;4.57;;;13.60;99.90;;;;;;4823551;29;20095;-88
2023/05/10 04:56:55;;;;;;;7.28;4.57;;;13.60;99.90;;;;;;4806854;29;20061;-87
2023/05/10 04:59:20;;;;;;;8.23;4.80;;;13.60;99.90;;;;;;4847370;29;20054;-88
2023/05/10 05:01:46;;;;;;;6.10;4.22;;;13.60;99.90;;;;;;4838173;29;20058;-87
2023/05/10 05:04:12;;;;;;;7.07;4.30;;;13.60;99.90;;;;;;4830196;29;20130;-88
2023/05/10 05:06:37;;;;;;;5.68;4.57;;;13.60;99.90;;;;;;4852621;29;20054;-89
2023/05/10 05:09:03;;;;;;;6.30;4.60;;;13.60;99.90;;;;;;4823726;29;20050;-87
2023/05/10 05:11:29;;;;;;;4.97;3.78;;;13.60;99.90;;;;;;4823946;29;20039;-89
2023/05/10 05:13:55;;;;;;;6.78;4.20;;;13.60;99.90;;;;;;4821267;29;20090;-87
2023/05/10 05:16:21;;;;;;;5.45;3.88;;;13.60;99.90;;;;;;4841477;29;20042;-89
2023/05/10 05:18:54;;;;;;;9.23;4.18;;;13.60;99.90;;;;;;4843493;29;20078;-91
2023/05/10 05:22:29;;;;;;;;;;;;;;;;;;;;;
2023/05/10 05:25:23;;;;;;;5.55;3.80;;;13.50;99.90;;;;;;4824707;29;20058;-91
2023/05/10 05:28:53;;;;;;;5.03;3.55;;;13.50;99.90;;;;;;4819504;29;20054;-90
2023/05/10 05:35:00;;;;;;;;;;;;;;;;;;;;;
2023/05/10 05:37:56;;;;;;;;;;;;;;;;;;;;;
2023/05/10 05:40:37;;;;;;;5.55;3.90;;;13.40;99.90;;;;;;4749789;30;20040;-90
2023/05/10 05:43:03;;;;;;;4.85;3.15;;;13.40;99.90;;;;;;4765804;30;20498;-91
2023/05/10 05:45:30;;;;;;;5.22;3.65;;;13.50;99.90;;;;;;4767401;30;20511;-90
2023/05/10 05:47:56;;;;;;;6.18;3.70;;;13.50;99.90;;;;;;4782660;29;20044;-88
2023/05/10 05:50:26;;;;;;;6.18;3.15;;;13.50;99.90;;;;;;4782135;30;20505;-90
2023/05/10 05:52:57;;;;;;;4.13;3.08;;;13.40;99.90;;;;;;4782409;29;20059;-90
2023/05/10 05:55:57;;;;;;;;;;;;;;;;;;;;;
2023/05/10 05:58:45;;;;;;;4.50;2.60;;;13.40;99.90;;;;;;4768027;30;20229;-89
2023/05/10 06:12:50;;;;;;;;;;;;;;;;;;;;;
2023/05/10 06:15:05;;;;;;;3.92;2.60;;;13.40;99.90;;;;;;4737241;30;20067;-89
2023/05/10 06:17:31;;;;;;;4.38;3.00;;;13.40;99.90;;;;;;4799046;29;20047;-88
2023/05/10 06:20:03;;;;;;;4.20;2.70;;;13.40;99.90;;;;;;4800116;29;20057;-91
2023/05/10 06:22:28;;;;;;;4.60;3.17;;;13.40;99.90;;;;;;4791143;29;20044;-89
2023/05/10 06:25:19;;;;;;;;;;;;;;;;;;;;;
2023/05/10 06:28:23;;;;;;;4.43;3.00;;;13.40;99.90;;;;;;4808122;29;20055;-88
2023/05/10 06:33:38;;;;;;;5.40;2.80;;;13.40;99.90;;;;;;4860820;24;20144;-89
2023/05/10 06:36:16;;;;;;;;;;;;;;;;;;;;;
2023/05/10 06:39:30;;;;;;;3.50;2.28;;;13.40;99.90;;;;;;4783815;30;20119;-90
2023/05/10 06:42:25;;;;;;;6.18;2.10;;;13.50;99.90;;;;;;4781253;29;20070;-91
2023/05/10 06:59:07;;;;;;;2.83;1.65;;;13.50;99.90;;;;;;4786526;29;20054;-90
2023/05/10 07:01:35;;;;;;;2.80;1.70;;;13.50;99.90;;;;;;4791621;29;20059;-92
2023/05/10 07:07:52;;;;;;;3.05;1.58;;;13.50;99.90;;;;;;4739759;29;20052;-91
2023/05/10 07:10:51;;;;;;;;;;;;;;;;;;;;;
2023/05/10 07:13:33;;;;;;;3.30;2.10;;;13.50;99.90;;;;;;4828723;29;20491;-91
2023/05/10 07:16:00;;;;;;;3.85;1.90;;;13.50;99.90;;;;;;4845375;29;20052;-91
2023/05/10 07:18:28;;;;;;;3.72;2.00;;;13.60;99.90;;;;;;4851547;24;20060;-91
2023/05/10 07:21:28;;;;;;;3.40;2.15;;;13.50;99.90;;;;;;4858133;29;20471;-89
2023/05/10 07:24:24;;;;;;;;;;;;;;;;;;;;;
2023/05/10 07:27:02;;;;;;;4.10;2.63;;;13.50;99.90;;;;;;4829860;29;20062;-89
2023/05/10 07:29:28;;;;;;;3.78;2.40;;;13.50;99.90;;;;;;4843518;29;20052;-89
2023/05/10 07:32:46;;;;;;;4.47;2.17;;;13.60;99.90;;;;;;4843602;29;20149;-94
2023/05/10 07:35:15;;;;;;;2.92;1.88;;;13.50;99.90;;;;;;4800772;29;20055;-91
2023/05/10 07:38:01;;;;;;;3.80;2.25;;;13.50;99.90;;;;;;4800256;29;20049;-91
2023/05/10 07:40:30;;;;;;;4.20;2.00;;;13.50;99.90;;;;;;4844098;29;20142;-91
2023/05/10 07:43:06;;;;;;;;;;;;;;;;;;;;;
2023/05/10 07:46:16;;;;;;;3.42;2.00;;;13.60;99.90;;;;;;4833454;29;20065;-91
2023/05/10 07:49:17;;;;;;;;;;;;;;;;;;;;;
2023/05/10 07:51:55;;;;;;;4.63;2.17;;;13.50;99.90;;;;;;4832804;24;20073;-91
2023/05/10 07:54:25;;;;;;;4.57;2.50;;;13.60;99.90;;;;;;4824913;29;20204;-90
2023/05/10 07:57:03;;;;;;;;;;;;;;;;;;;;;
2023/05/10 07:59:37;;;;;;;3.35;2.10;;;13.60;99.90;;;;;;4813819;29;20066;-89
2023/05/10 08:02:37;;;;;;;4.70;2.42;;;13.60;99.90;;;;;;4811575;29;20053;-91
2023/05/10 08:05:05;;;;;;;3.85;2.20;;;13.60;99.90;;;;;;4822693;29;20042;-90
2023/05/10 08:07:31;;;;;;;5.57;2.30;;;13.60;99.90;;;;;;4824909;29;20133;-90
2023/05/10 08:09:57;;;;;;;4.82;2.42;;;13.70;99.90;;;;;;4822736;29;20502;-88
2023/05/10 08:12:49;;;;;;;5.35;2.60;;;13.60;99.90;;;;;;4809987;29;20098;-91
2023/05/10 08:15:14;;;;;;;4.65;2.47;;;13.60;99.90;;;;;;4816954;29;20082;-91
2023/05/10 08:17:40;;;;;;;4.28;2.05;;;13.60;99.90;;;;;;4811216;29;20084;-89
2023/05/10 08:20:33;;;;;;;3.22;2.00;;;13.60;99.90;;;;;;4822799;29;20050;-91
2023/05/10 08:23:04;;;;;;;3.58;2.15;;;13.60;99.90;;;;;;4823697;29;20038;-90
2023/05/10 08:25:40;;;;;;;4.15;2.40;;;13.60;99.90;;;;;;4820480;29;20117;-90
2023/05/10 08:28:11;;;;;;;3.25;2.10;;;13.60;99.90;;;;;;4808172;29;20082;-89
2023/05/10 08:30:39;;;;;;;5.57;2.35;;;13.60;99.90;;;;;;4818647;29;20058;-90
2023/05/10 08:33:08;;;;;;;3.55;2.22;;;13.70;99.90;;;;;;4816417;29;20051;-89
2023/05/10 08:35:48;;;;;;;4.63;2.40;;;13.70;99.90;;;;;;4819135;29;20058;-90
2023/05/10 08:38:14;;;;;;;4.63;2.42;;;13.70;99.90;;;;;;4822414;29;20411;-89
2023/05/10 08:41:08;;;;;;;4.97;2.50;;;13.70;99.90;;;;;;4844430;24;20054;-90
2023/05/10 08:43:59;;;;;;;4.30;2.40;;;13.70;99.90;;;;;;4810197;29;20061;-89
2023/05/10 08:46:55;;;;;;;5.10;2.10;;;13.80;99.90;;;;;;4841325;29;20072;-89
2023/05/10 08:49:25;;;;;;;4.67;2.60;;;13.70;99.90;;;;;;4842419;29;20394;-89
2023/05/10 08:51:55;;;;;;;3.83;1.92;;;13.70;99.90;;;;;;4841805;29;20299;-90
2023/05/10 08:54:24;;;;;;;4.60;2.90;;;13.80;99.90;;;;;;4841896;29;20038;-90
2023/05/10 08:57:05;;;;;;;4.63;2.45;;;13.80;99.90;;;;;;4842517;29;20125;-89
2023/05/10 09:06:47;;;;;;;;;;;13.80;99.90;;;;;;4750177;30;20147;-90
2023/05/10 09:09:17;;;;;;;5.65;3.28;;;13.80;99.90;;;;;;4736015;30;20438;-89
2023/05/10 09:11:43;;;;;;;5.68;3.22;;;13.90;99.90;;;;;;4778621;30;20082;-90
2023/05/10 09:14:17;;;;;;;5.63;3.17;;;13.90;99.90;;;;;;4808110;29;20102;-89
2023/05/10 09:17:01;;;;;;;7.32;4.13;;;13.90;99.90;;;;;;4813027;29;20155;-89
2023/05/10 09:20:00;;;;;;;9.10;4.13;;;13.90;99.90;;;;;;4807783;29;20133;-91
2023/05/10 09:22:29;;;;;;;7.75;4.53;;;13.90;99.90;;;;;;4819830;29;20050;-90
2023/05/10 09:25:11;;;;;;;7.00;4.13;;;13.90;99.90;;;;;;4843459;29;20069;-89
2023/05/10 09:28:15;;;;;;;7.18;3.60;;;14.00;99.90;;;;;;4838514;29;20072;-88
2023/05/10 09:31:10;;;;;;;7.85;4.13;;;13.90;99.90;;;;;;4769549;30;20127;-88
2023/05/10 09:33:55;;;;;;;7.30;4.20;;;14.00;99.90;;;;;;4784127;30;20059;-89
2023/05/10 09:36:26;;;;;;;7.45;5.20;;;14.00;99.90;;;;;;4802100;29;20058;-89
2023/05/10 09:38:52;;;;;;;7.63;4.03;;;13.90;99.90;;;;;;4839078;29;20061;-89
2023/05/10 09:41:22;;;;;;;5.90;3.63;;;14.00;99.90;;;;;;4846279;29;20050;-89
2023/05/10 09:47:10;;;;;;;6.95;3.35;;;14.00;99.90;;;;;;4849447;29;20050;-90
2023/05/10 09:50:02;;;;;;;8.02;4.63;;;14.00;99.90;;;;;;4783934;29;20094;-89
2023/05/10 09:52:58;;;;;;;5.93;4.03;;;14.00;99.90;;;;;;4817768;29;20057;-88
2023/05/10 09:55:36;;;;;;;6.10;4.00;;;14.00;99.90;;;;;;4851574;29;20050;-89
2023/05/10 09:58:10;;;;;;;6.88;4.45;;;14.10;99.90;;;;;;4846121;29;20054;-90
2023/05/10 10:00:37;;;;;;;6.82;4.47;;;14.10;99.90;;;;;;4847345;29;20059;-91
2023/05/10 10:03:03;;;;;;;5.95;4.10;;;14.10;99.90;;;;;;4857487;29;20046;-91
2023/05/10 10:05:46;;;;;;;6.30;4.28;;;14.20;99.90;;;;;;4860923;29;20049;-92
2023/05/10 10:14:38;;;;;;;8.43;4.68;;;14.20;99.90;;;;;;4845128;29;20045;-87
2023/05/10 10:17:07;;;;;;;7.40;4.22;;;14.30;99.90;;;;;;4851249;29;20121;-87
2023/05/10 10:19:34;;;;;;;7.15;4.40;;;14.30;99.90;;;;;;4846390;29;20049;-88
2023/05/10 10:24:51;;;;;;;7.10;4.32;;;14.40;99.90;;;;;;4840715;29;20061;-88
2023/05/10 10:27:20;;;;;;;7.32;4.65;;;14.50;99.90;;;;;;4843332;29;20033;-88
2023/05/10 10:30:17;;;;;;;6.22;4.72;;;14.50;99.90;;;;;;4843942;29;20132;-91
2023/05/10 10:33:16;;;;;;;7.13;4.32;;;14.60;99.90;;;;;;4850011;29;20053;-93
2023/05/10 10:35:46;;;;;;;7.60;4.65;;;14.60;99.90;;;;;;4844574;29;20049;-95
2023/05/10 10:38:24;;;;;;;8.48;4.70;;;14.70;99.90;;;;;;4845058;29;20110;-91
2023/05/10 10:41:43;;;;;;;7.13;4.15;;;14.70;99.90;;;;;;4843976;29;20066;-93
2023/05/10 10:44:41;;;;;;;6.40;4.07;;;14.70;99.90;;;;;;4816869;29;20096;-93
2023/05/10 10:47:22;;;;;;;6.13;4.22;;;14.80;99.90;;;;;;4798582;29;20049;-94
2023/05/10 10:50:16;;;;;;;6.95;4.10;;;14.80;99.90;;;;;;4843267;29;20136;-95
2023/05/10 10:52:43;;;;;;;6.45;4.70;;;14.80;99.90;;;;;;4834396;29;20134;-93
2023/05/10 10:55:25;;;;;;;6.70;4.82;;;14.80;99.90;;;;;;4859330;29;20049;-90
2023/05/10 10:58:02;;;;;;;6.60;4.50;;;14.90;99.90;;;;;;4852346;29;20423;-85
2023/05/10 11:00:45;;;;;;;7.00;4.30;;;14.90;99.90;;;;;;4849244;24;20045;-86
2023/05/10 11:03:18;;;;;;;7.45;4.22;;;14.90;99.90;;;;;;4855239;29;20103;-88
2023/05/10 11:05:45;;;;;;;6.68;4.53;;;14.90;99.90;;;;;;4827980;29;20114;-88
2023/05/10 11:08:15;;;;;;;6.50;4.30;;;15.00;99.90;;;;;;4844765;29;20049;-89
2023/05/10 11:10:54;;;;;;;7.40;4.53;;;15.00;99.90;;;;;;4843390;29;20054;-88
2023/05/10 11:13:42;;;;;;;8.50;5.03;;;15.00;99.90;;;;;;4843899;29;20042;-88
2023/05/10 11:16:15;;;;;;;8.43;5.15;;;15.10;99.90;;;;;;4844558;29;20133;-88
2023/05/10 11:18:53;;;;;;;7.38;5.00;;;15.10;99.90;;;;;;4844280;29;20089;-88
2023/05/10 11:21:19;;;;;;;6.65;4.70;;;15.10;99.90;;;;;;4842607;29;20042;-89
2023/05/10 11:23:49;;;;;;;5.95;4.68;;;15.10;99.90;;;;;;4844200;29;20050;-88
2023/05/10 11:26:15;;;;;;;6.60;4.90;;;15.10;99.90;;;;;;4843836;29;20042;-88
2023/05/10 11:28:48;;;;;;;6.72;4.72;;;15.10;99.90;;;;;;4843717;29;20050;-87
2023/05/10 11:31:18;;;;;;;7.53;5.03;;;15.10;99.90;;;;;;4844070;29;20054;-88
2023/05/10 11:33:52;;;;;;;9.25;4.63;;;15.10;99.90;;;;;;4842967;29;20054;-88
2023/05/10 11:36:23;;;;;;;7.03;4.75;;;15.10;99.90;;;;;;4843955;29;20050;-87
2023/05/10 11:38:49;;;;;;;7.00;5.05;;;15.20;99.90;;;;;;4842308;29;20053;-87
2023/05/10 11:41:17;;;;;;;9.35;5.88;;;15.10;99.90;;;;;;4841712;29;20050;-88
2023/05/10 11:43:45;;;;;;;6.95;4.30;;;15.10;99.90;;;;;;4843632;29;20050;-88
2023/05/10 11:46:13;;;;;;;6.07;4.50;;;15.20;99.90;;;;;;4843078;29;20050;-88
2023/05/10 11:48:39;;;;;;;5.90;4.25;;;15.20;99.90;;;;;;4843142;29;20087;-89
2023/05/10 11:51:10;;;;;;;8.15;5.03;;;15.20;99.90;;;;;;4843836;29;20054;-86
2023/05/10 11:53:35;;;;;;;6.50;4.85;;;15.20;99.90;;;;;;4842193;29;20046;-87
2023/05/10 11:56:06;;;;;;;8.10;5.68;;;15.20;99.90;;;;;;4842911;29;20053;-89
2023/05/10 11:58:33;;;;;;;7.53;5.47;;;15.20;99.90;;;;;;4833318;24;20059;-88
2023/05/10 12:00:59;;;;;;;8.32;5.53;;;15.20;99.90;;;;;;4823832;29;20082;-88
2023/05/10 12:03:26;;;;;;;7.03;4.82;;;15.20;99.90;;;;;;4823696;29;20102;-88
2023/05/10 12:05:52;;;;;;;7.70;5.32;;;15.20;99.90;;;;;;4823396;29;20054;-86
2023/05/10 12:08:25;;;;;;;7.13;5.15;;;15.20;99.90;;;;;;4824073;29;20183;-87
2023/05/10 12:10:51;;;;;;;7.90;4.78;;;15.20;99.90;;;;;;4823404;29;20058;-87
2023/05/10 12:13:18;;;;;;;7.00;4.70;;;15.20;99.90;;;;;;4823915;29;20058;-87
2023/05/10 12:15:44;;;;;;;9.63;5.60;;;15.20;99.90;;;;;;4822698;29;20080;-88
2023/05/10 12:18:11;;;;;;;7.22;4.80;;;15.30;99.90;;;;;;4823856;29;20086;-87
2023/05/10 12:20:37;;;;;;;7.25;4.55;;;15.30;99.90;;;;;;4824412;29;20054;-88
2023/05/10 12:23:03;;;;;;;7.25;4.85;;;15.30;99.90;;;;;;4822744;29;20042;-88
2023/05/10 12:25:34;;;;;;;6.40;4.50;;;15.30;99.90;;;;;;4824922;29;20050;-87
2023/05/10 12:28:03;;;;;;;7.63;4.80;;;15.40;99.90;;;;;;4823703;29;20126;-88
2023/05/10 12:30:33;;;;;;;7.10;4.40;;;15.30;99.90;;;;;;4823007;29;20049;-87
2023/05/10 12:33:20;;;;;;;7.93;5.10;;;15.40;99.90;;;;;;4818228;29;20066;-88
2023/05/10 12:43:19;;;;;;;9.27;5.75;;;15.50;99.90;;;;;;4824085;29;20062;-90
2023/05/10 12:45:47;;;;;;;10.73;6.88;;;15.40;99.90;;;;;;4820902;29;20070;-91
2023/05/10 12:48:23;;;;;;;8.05;5.57;;;15.40;99.90;;;;;;4825615;29;20058;-92
2023/05/10 12:50:49;;;;;;;10.63;6.32;;;15.40;99.90;;;;;;4826042;29;20082;-91
2023/05/10 12:54:11;;;;;;;10.18;6.65;;;15.40;99.90;;;;;;4829553;29;20058;-90
2023/05/10 12:56:37;;;;;;;10.77;6.75;;;15.40;99.90;;;;;;4823998;29;20046;-90
2023/05/10 12:59:03;;;;;;;9.82;6.18;;;15.40;99.90;;;;;;4842679;29;20057;-89
2023/05/10 13:01:28;;;;;;;11.05;7.43;;;15.40;99.90;;;;;;4826943;29;20054;-91
2023/05/10 13:04:00;;;;;;;12.85;7.47;;;15.40;99.90;;;;;;4825477;29;20050;-92
2023/05/10 13:06:25;;;;;;;12.40;5.65;;;15.40;99.90;;;;;;4833355;29;20062;-88
2023/05/10 13:08:51;;;;;;;10.15;7.03;;;15.40;99.90;;;;;;4829259;29;20159;-89
2023/05/10 13:11:48;;;;;;;10.05;7.25;;;15.40;99.90;;;;;;4823210;29;20047;-91
2023/05/10 13:14:50;;;;;;;9.90;7.10;;;15.50;99.90;;;;;;4812893;29;20511;-90
2023/05/10 13:18:20;;;;;;;11.63;6.47;;;15.50;99.90;;;;;;4833231;29;20058;-89
2023/05/10 13:20:49;;;;;;;9.10;6.18;;;15.50;99.90;;;;;;4749183;30;20177;-88
2023/05/10 13:23:17;;;;;;;9.35;6.55;;;15.40;99.90;;;;;;4832543;29;20088;-90
2023/05/10 13:26:01;;;;;;;9.23;6.60;;;15.50;99.90;;;;;;4826704;29;20058;-90
2023/05/10 13:28:55;;;;;;;;;;;15.50;99.90;;;;;;4834759;24;20054;-88
2023/05/10 13:31:27;;;;;;;11.82;6.60;;;15.40;99.90;;;;;;4912141;24;19924;-90
2023/05/10 13:33:53;;;;;;;10.40;6.95;;;15.50;99.90;;;;;;4849574;29;20046;-90
2023/05/10 13:36:28;;;;;;;10.98;6.57;;;15.50;99.90;;;;;;4850159;29;20495;-91
2023/05/10 13:39:05;;;;;;;10.10;6.97;;;15.60;99.90;;;;;;4851027;24;20065;-91
2023/05/10 13:41:47;;;;;;;10.25;6.72;;;15.60;99.90;;;;;;4794781;29;20057;-91
2023/05/10 13:44:23;;;;;;;10.25;7.05;;;15.70;99.90;;;;;;4801148;29;20051;-91
2023/05/10 13:46:56;;;;;;;11.52;7.25;;;15.70;99.90;;;;;;4800041;29;20047;-91
2023/05/10 13:49:23;;;;;;;9.90;7.03;;;15.80;99.90;;;;;;4805474;29;20385;-90
2023/05/10 13:52:06;;;;;;;10.13;6.80;;;15.80;99.90;;;;;;4795975;29;20081;-89
2023/05/10 13:54:33;;;;;;;9.55;7.22;;;15.80;99.90;;;;;;4797748;29;20073;-90
2023/05/10 13:56:59;;;;;;;9.63;6.50;;;15.80;99.90;;;;;;4802159;29;20456;-91
2023/05/10 13:59:25;;;;;;;10.90;7.55;;;15.90;99.90;;;;;;4805949;29;20484;-91
2023/05/10 14:01:54;;;;;;;11.00;7.93;;;15.90;99.90;;;;;;4798413;29;20050;-90
2023/05/10 14:05:20;;;;;;;10.45;6.85;;;15.90;99.90;;;;;;4797646;29;20051;-92
2023/05/10 15:11:13;;;;;;;;;;;;;;;;;;;;;
2023/05/10 15:18:34;;;;;;;;;;;;;;;;;;;;;
2023/05/10 15:28:06;;;;;;;9.65;5.32;;;16.40;99.90;;;;;;4810692;29;20086;-92
2023/05/10 15:30:32;;;;;;;9.68;5.47;;;16.40;99.90;;;;;;4811049;29;20051;-93
2023/05/10 15:33:00;;;;;;;7.20;4.97;;;16.40;99.90;;;;;;4807823;29;20134;-94
2023/05/10 15:35:38;;;;;;;8.45;5.78;;;16.40;99.90;;;;;;4848523;23;20159;-92
2023/05/10 15:38:06;;;;;;;8.48;5.53;;;16.50;99.90;;;;;;4844447;29;20050;-93
2023/05/10 15:40:32;;;;;;;8.38;5.50;;;16.60;99.90;;;;;;4844633;29;20052;-94
2023/05/10 15:42:59;;;;;;;7.70;5.30;;;16.60;99.90;;;;;;4858737;29;20042;-91
2023/05/10 15:45:25;;;;;;;10.68;4.82;;;16.60;99.90;;;;;;4854684;29;20131;-92
2023/05/10 15:47:51;;;;;;;7.53;4.82;;;16.60;99.90;;;;;;4844898;29;20440;-91
2023/05/10 15:50:16;;;;;;;7.15;5.20;;;16.70;99.90;;;;;;4874398;29;20487;-91
2023/05/10 15:52:42;;;;;;;7.93;5.50;;;16.70;99.90;;;;;;4847511;29;20177;-90
2023/05/10 15:55:16;;;;;;;7.45;5.32;;;16.70;99.90;;;;;;4848886;29;20494;-91
2023/05/10 15:57:43;;;;;;;8.45;5.95;;;16.70;99.90;;;;;;4856110;29;20056;-92
2023/05/10 16:00:10;;;;;;;11.27;5.80;;;16.70;99.90;;;;;;4861398;29;20056;-92
2023/05/10 16:02:42;;;;;;;8.23;6.20;;;16.70;99.90;;;;;;4860509;29;20418;-91
2023/05/10 16:05:13;;;;;;;7.90;5.95;;;16.70;99.90;;;;;;4862688;29;20078;-91
2023/05/10 16:07:47;;;;;;;9.35;5.95;;;16.70;99.90;;;;;;4857838;29;20480;-92
2023/05/10 16:10:13;;;;;;;8.38;5.78;;;16.70;99.90;;;;;;4844240;29;20042;-91
2023/05/10 16:12:39;;;;;;;7.90;6.20;;;16.80;99.90;;;;;;4851813;29;20101;-91
2023/05/10 16:15:05;;;;;;;9.88;6.60;;;16.80;99.90;;;;;;4860630;29;20041;-92
2023/05/10 16:17:34;;;;;;;10.90;7.28;;;16.80;99.90;;;;;;4860079;29;20058;-89
2023/05/10 16:20:00;;;;;;;8.65;5.93;;;16.80;99.90;;;;;;4838575;29;20046;-90
2023/05/10 16:22:29;;;;;;;9.75;6.35;;;16.80;99.90;;;;;;4842670;29;20061;-91
2023/05/10 16:24:56;;;;;;;8.40;6.22;;;16.70;99.90;;;;;;4842733;29;20042;-90
2023/05/10 16:27:23;;;;;;;8.38;6.15;;;16.80;99.90;;;;;;4842301;29;20503;-90
2023/05/10 16:29:49;;;;;;;9.05;5.82;;;16.80;99.90;;;;;;4846219;29;20041;-91
2023/05/10 16:32:22;;;;;;;8.23;5.65;;;16.80;99.90;;;;;;4851066;29;20419;-91
2023/05/10 16:35:03;;;;;;;8.20;5.90;;;16.70;99.90;;;;;;4839334;29;20140;-91
2023/05/10 16:37:29;;;;;;;9.68;6.55;;;16.70;99.90;;;;;;4861458;29;20107;-92
2023/05/10 16:40:10;;;;;;;9.25;6.22;;;16.70;99.90;;;;;;4846960;29;20487;-92
2023/05/10 16:42:36;;;;;;;9.02;6.75;;;16.70;99.90;;;;;;4860846;29;20126;-93
2023/05/10 16:45:06;;;;;;;9.38;6.20;;;16.70;99.90;;;;;;4847186;29;20435;-93
2023/05/10 16:47:36;;;;;;;9.80;6.28;;;16.70;99.90;;;;;;4842929;29;20499;-91
2023/05/10 16:50:04;;;;;;;10.50;6.00;;;16.70;99.90;;;;;;4846399;29;20491;-91
2023/05/10 16:52:31;;;;;;;8.18;5.75;;;16.70;99.90;;;;;;4857620;29;20049;-93
2023/05/10 16:54:58;;;;;;;8.65;6.20;;;16.70;99.90;;;;;;4843453;29;20474;-91
2023/05/10 16:57:24;;;;;;;8.50;5.68;;;16.70;99.90;;;;;;4842004;29;20042;-91
2023/05/10 16:59:52;;;;;;;7.65;5.80;;;16.70;99.90;;;;;;4840322;29;20056;-90
2023/05/10 17:02:22;;;;;;;10.23;7.13;;;16.70;99.90;;;;;;4840618;29;20052;-91
2023/05/10 17:04:48;;;;;;;8.95;5.60;;;16.60;99.90;;;;;;4839979;29;20073;-90
2023/05/10 17:07:14;;;;;;;9.05;5.55;;;16.70;99.90;;;;;;4840614;29;20053;-92
2023/05/10 17:09:43;;;;;;;8.25;5.65;;;16.70;99.90;;;;;;4843675;29;20044;-91
2023/05/10 17:12:09;;;;;;;7.97;5.55;;;16.70;99.90;;;;;;4841707;29;20538;-91
2023/05/10 17:14:52;;;;;;;7.32;5.47;;;16.70;99.90;;;;;;4842796;29;20038;-90
2023/05/10 17:17:31;;;;;;;9.75;5.10;;;16.70;99.90;;;;;;4842404;29;20069;-92
2023/05/10 17:20:15;;;;;;;7.78;5.13;;;16.70;99.90;;;;;;4842350;29;20054;-91
2023/05/10 17:22:41;;;;;;;12.48;5.85;;;16.60;99.90;;;;;;4842307;29;20096;-91
2023/05/10 17:25:07;;;;;;;9.35;5.93;;;16.70;99.90;;;;;;4848138;29;20459;-92
2023/05/10 17:27:33;;;;;;;9.10;6.20;;;16.70;99.90;;;;;;4842502;29;20483;-92
2023/05/10 17:29:58;;;;;;;11.75;6.15;;;16.70;99.90;;;;;;4841578;29;20053;-93
2023/05/10 17:32:30;;;;;;;8.88;5.78;;;16.70;99.90;;;;;;4840556;29;20046;-91
2023/05/10 17:34:56;;;;;;;9.90;5.75;;;16.70;99.90;;;;;;4852093;29;20526;-90
2023/05/10 17:37:22;;;;;;;8.60;5.35;;;16.70;99.90;;;;;;4847331;29;20046;-90